sensor_id;sensor_type;location;lat;lon;timestamp;P1;durP1;ratioP1;P2;durP2;ratioP2
71038;SDS011;58692;43.212;27.908;2024-01-15T00:01:28;19.05;;;9.63;;
71038;SDS011;58692;43.212;27.908;2024-01-15T00:03:54;18.92;;;9.30;;
71038;SDS011;58692;43.212;27.908;2024-01-15T00:06:20;17.97;;;8.60;;
71038;SDS011;58692;43.212;27.908;2024-01-15T00:08:46;15.68;;;7.75;;
71038;SDS011;58692;43.212;27.908;2024-01-15T00:11:11;16.80;;;7.67;;
71038;SDS011;58692;43.212;27.908;2024-01-15T00:13:37;16.42;;;7.40;;
71038;SDS011;58692;43.212;27.908;2024-01-15T00:16:04;17.73;;;8.70;;
71038;SDS011;58692;43.212;27.908;2024-01-15T00:18:29;21.93;;;10.47;;
71038;SDS011;58692;43.212;27.908;2024-01-15T00:20:55;26.92;;;11.85;;
71038;SDS011;58692;43.212;27.908;2024-01-15T00:23:22;28.60;;;13.13;;
71038;SDS011;58692;43.212;27.908;2024-01-15T00:25:48;27.20;;;12.67;;
71038;SDS011;58692;43.212;27.908;2024-01-15T00:28:15;26.25;;;13.55;;
71038;SDS011;58692;43.212;27.908;2024-01-15T00:30:41;28.85;;;14.15;;
71038;SDS011;58692;43.212;27.908;2024-01-15T00:33:07;28.17;;;13.87;;
71038;SDS011;58692;43.212;27.908;2024-01-15T00:35:32;32.83;;;16.13;;
71038;SDS011;58692;43.212;27.908;2024-01-15T00:37:58;32.67;;;16.73;;
71038;SDS011;58692;43.212;27.908;2024-01-15T00:40:23;37.03;;;17.50;;
71038;SDS011;58692;43.212;27.908;2024-01-15T00:42:50;32.28;;;16.33;;
71038;SDS011;58692;43.212;27.908;2024-01-15T00:45:16;33.93;;;16.40;;
71038;SDS011;58692;43.212;27.908;2024-01-15T00:47:42;31.65;;;16.33;;
71038;SDS011;58692;43.212;27.908;2024-01-15T00:50:07;31.70;;;16.27;;
71038;SDS011;58692;43.212;27.908;2024-01-15T00:52:33;33.65;;;16.63;;
71038;SDS011;58692;43.212;27.908;2024-01-15T00:54:59;34.17;;;16.37;;
71038;SDS011;58692;43.212;27.908;2024-01-15T00:57:25;33.60;;;16.02;;
71038;SDS011;58692;43.212;27.908;2024-01-15T00:59:51;34.55;;;15.38;;
71038;SDS011;58692;43.212;27.908;2024-01-15T01:02:17;33.37;;;15.67;;
71038;SDS011;58692;43.212;27.908;2024-01-15T01:04:43;35.72;;;15.27;;
71038;SDS011;58692;43.212;27.908;2024-01-15T01:07:08;30.50;;;14.37;;
71038;SDS011;58692;43.212;27.908;2024-01-15T01:09:34;28.83;;;15.13;;
71038;SDS011;58692;43.212;27.908;2024-01-15T01:12:00;28.45;;;13.95;;
71038;SDS011;58692;43.212;27.908;2024-01-15T01:14:25;32.22;;;13.75;;
71038;SDS011;58692;43.212;27.908;2024-01-15T01:16:51;29.57;;;14.43;;
71038;SDS011;58692;43.212;27.908;2024-01-15T01:19:17;26.60;;;13.30;;
71038;SDS011;58692;43.212;27.908;2024-01-15T01:21:42;26.90;;;13.77;;
71038;SDS011;58692;43.212;27.908;2024-01-15T01:24:08;30.55;;;15.25;;
71038;SDS011;58692;43.212;27.908;2024-01-15T01:26:34;25.83;;;13.40;;
71038;SDS011;58692;43.212;27.908;2024-01-15T01:28:59;30.33;;;13.87;;
71038;SDS011;58692;43.212;27.908;2024-01-15T01:31:25;31.25;;;14.10;;
71038;SDS011;58692;43.212;27.908;2024-01-15T01:33:50;27.37;;;14.20;;
71038;SDS011;58692;43.212;27.908;2024-01-15T01:36:16;28.30;;;13.80;;
71038;SDS011;58692;43.212;27.908;2024-01-15T01:38:41;27.77;;;13.60;;
71038;SDS011;58692;43.212;27.908;2024-01-15T01:41:07;32.07;;;14.47;;
71038;SDS011;58692;43.212;27.908;2024-01-15T01:43:33;28.10;;;13.68;;
71038;SDS011;58692;43.212;27.908;2024-01-15T01:45:59;25.33;;;13.03;;
71038;SDS011;58692;43.212;27.908;2024-01-15T01:48:26;29.60;;;13.73;;
71038;SDS011;58692;43.212;27.908;2024-01-15T01:50:54;32.00;;;15.65;;
71038;SDS011;58692;43.212;27.908;2024-01-15T01:53:22;29.55;;;14.90;;
71038;SDS011;58692;43.212;27.908;2024-01-15T01:55:48;32.57;;;14.60;;
71038;SDS011;58692;43.212;27.908;2024-01-15T01:58:14;30.90;;;14.82;;
71038;SDS011;58692;43.212;27.908;2024-01-15T02:00:40;30.73;;;14.32;;
71038;SDS011;58692;43.212;27.908;2024-01-15T02:03:06;30.23;;;15.37;;
71038;SDS011;58692;43.212;27.908;2024-01-15T02:05:32;31.33;;;15.45;;
71038;SDS011;58692;43.212;27.908;2024-01-15T02:08:00;32.25;;;15.82;;
71038;SDS011;58692;43.212;27.908;2024-01-15T02:10:25;27.93;;;14.93;;
71038;SDS011;58692;43.212;27.908;2024-01-15T02:12:51;31.95;;;15.80;;
71038;SDS011;58692;43.212;27.908;2024-01-15T02:15:16;31.63;;;15.07;;
71038;SDS011;58692;43.212;27.908;2024-01-15T02:20:32;32.37;;;14.53;;
71038;SDS011;58692;43.212;27.908;2024-01-15T02:25:41;32.42;;;14.25;;
71038;SDS011;58692;43.212;27.908;2024-01-15T02:28:09;34.13;;;15.67;;
71038;SDS011;58692;43.212;27.908;2024-01-15T02:30:37;36.83;;;16.73;;
71038;SDS011;58692;43.212;27.908;2024-01-15T02:33:04;37.10;;;15.88;;
71038;SDS011;58692;43.212;27.908;2024-01-15T02:35:30;34.03;;;14.07;;
71038;SDS011;58692;43.212;27.908;2024-01-15T02:37:56;30.93;;;14.53;;
71038;SDS011;58692;43.212;27.908;2024-01-15T02:40:21;32.53;;;15.30;;
71038;SDS011;58692;43.212;27.908;2024-01-15T02:42:47;31.60;;;14.90;;
71038;SDS011;58692;43.212;27.908;2024-01-15T02:45:13;29.17;;;14.73;;
71038;SDS011;58692;43.212;27.908;2024-01-15T02:47:39;30.20;;;14.80;;
71038;SDS011;58692;43.212;27.908;2024-01-15T02:50:04;31.45;;;15.80;;
71038;SDS011;58692;43.212;27.908;2024-01-15T02:52:30;35.25;;;15.45;;
71038;SDS011;58692;43.212;27.908;2024-01-15T02:54:56;37.50;;;17.33;;
71038;SDS011;58692;43.212;27.908;2024-01-15T02:57:22;34.07;;;14.87;;
71038;SDS011;58692;43.212;27.908;2024-01-15T02:59:47;32.22;;;15.00;;
71038;SDS011;58692;43.212;27.908;2024-01-15T03:02:13;40.03;;;16.83;;
71038;SDS011;58692;43.212;27.908;2024-01-15T03:04:42;43.60;;;18.03;;
71038;SDS011;58692;43.212;27.908;2024-01-15T03:07:08;30.37;;;13.97;;
71038;SDS011;58692;43.212;27.908;2024-01-15T03:09:34;31.75;;;14.35;;
71038;SDS011;58692;43.212;27.908;2024-01-15T03:12:00;30.30;;;14.23;;
71038;SDS011;58692;43.212;27.908;2024-01-15T03:14:25;32.10;;;14.83;;
71038;SDS011;58692;43.212;27.908;2024-01-15T03:16:51;29.17;;;14.27;;
71038;SDS011;58692;43.212;27.908;2024-01-15T03:19:17;34.80;;;14.90;;
71038;SDS011;58692;43.212;27.908;2024-01-15T03:21:43;30.20;;;14.43;;
71038;SDS011;58692;43.212;27.908;2024-01-15T03:24:08;31.33;;;14.65;;
71038;SDS011;58692;43.212;27.908;2024-01-15T03:26:34;30.50;;;14.63;;
71038;SDS011;58692;43.212;27.908;2024-01-15T03:29:00;35.07;;;15.00;;
71038;SDS011;58692;43.212;27.908;2024-01-15T03:31:25;33.87;;;14.50;;
71038;SDS011;58692;43.212;27.908;2024-01-15T03:33:51;38.88;;;16.13;;
71038;SDS011;58692;43.212;27.908;2024-01-15T03:36:17;30.43;;;15.23;;
71038;SDS011;58692;43.212;27.908;2024-01-15T03:38:43;33.67;;;14.95;;
71038;SDS011;58692;43.212;27.908;2024-01-15T03:41:08;37.77;;;16.03;;
71038;SDS011;58692;43.212;27.908;2024-01-15T03:43:34;32.10;;;15.40;;
71038;SDS011;58692;43.212;27.908;2024-01-15T03:46:00;32.63;;;15.50;;
71038;SDS011;58692;43.212;27.908;2024-01-15T03:48:27;30.80;;;15.15;;
71038;SDS011;58692;43.212;27.908;2024-01-15T03:50:52;36.45;;;17.50;;
71038;SDS011;58692;43.212;27.908;2024-01-15T03:53:18;32.40;;;15.67;;
71038;SDS011;58692;43.212;27.908;2024-01-15T03:55:44;36.60;;;16.45;;
71038;SDS011;58692;43.212;27.908;2024-01-15T03:58:09;31.83;;;15.47;;
71038;SDS011;58692;43.212;27.908;2024-01-15T04:00:35;32.57;;;15.60;;
71038;SDS011;58692;43.212;27.908;2024-01-15T04:03:01;31.07;;;15.07;;
71038;SDS011;58692;43.212;27.908;2024-01-15T04:05:26;33.87;;;16.60;;
71038;SDS011;58692;43.212;27.908;2024-01-15T04:07:52;31.57;;;15.17;;
71038;SDS011;58692;43.212;27.908;2024-01-15T04:10:17;37.87;;;15.67;;
71038;SDS011;58692;43.212;27.908;2024-01-15T04:12:43;34.03;;;15.27;;
71038;SDS011;58692;43.212;27.908;2024-01-15T04:15:11;31.75;;;14.75;;
71038;SDS011;58692;43.212;27.908;2024-01-15T04:17:37;32.20;;;14.67;;
71038;SDS011;58692;43.212;27.908;2024-01-15T04:20:03;28.00;;;14.50;;
71038;SDS011;58692;43.212;27.908;2024-01-15T04:22:29;34.92;;;15.75;;
71038;SDS011;58692;43.212;27.908;2024-01-15T04:24:55;30.30;;;14.60;;
71038;SDS011;58692;43.212;27.908;2024-01-15T04:27:20;27.73;;;14.27;;
71038;SDS011;58692;43.212;27.908;2024-01-15T04:29:46;30.80;;;14.50;;
71038;SDS011;58692;43.212;27.908;2024-01-15T04:32:11;35.58;;;16.48;;
71038;SDS011;58692;43.212;27.908;2024-01-15T04:34:37;33.43;;;15.63;;
71038;SDS011;58692;43.212;27.908;2024-01-15T04:37:02;36.70;;;16.77;;
71038;SDS011;58692;43.212;27.908;2024-01-15T04:39:28;31.75;;;16.20;;
71038;SDS011;58692;43.212;27.908;2024-01-15T04:41:55;33.72;;;16.38;;
71038;SDS011;58692;43.212;27.908;2024-01-15T04:44:22;37.93;;;16.93;;
71038;SDS011;58692;43.212;27.908;2024-01-15T04:46:47;36.97;;;16.88;;
71038;SDS011;58692;43.212;27.908;2024-01-15T04:49:13;36.37;;;18.23;;
71038;SDS011;58692;43.212;27.908;2024-01-15T04:51:39;41.87;;;16.73;;
71038;SDS011;58692;43.212;27.908;2024-01-15T04:54:04;35.40;;;17.47;;
71038;SDS011;58692;43.212;27.908;2024-01-15T04:56:30;41.60;;;17.50;;
71038;SDS011;58692;43.212;27.908;2024-01-15T04:58:55;38.27;;;18.77;;
71038;SDS011;58692;43.212;27.908;2024-01-15T05:01:21;43.33;;;21.50;;
71038;SDS011;58692;43.212;27.908;2024-01-15T05:03:47;54.00;;;23.40;;
71038;SDS011;58692;43.212;27.908;2024-01-15T05:06:13;53.20;;;25.05;;
71038;SDS011;58692;43.212;27.908;2024-01-15T05:08:41;53.45;;;24.33;;
71038;SDS011;58692;43.212;27.908;2024-01-15T05:11:07;48.87;;;22.63;;
71038;SDS011;58692;43.212;27.908;2024-01-15T05:13:32;47.57;;;21.63;;
71038;SDS011;58692;43.212;27.908;2024-01-15T05:15:58;46.00;;;21.20;;
71038;SDS011;58692;43.212;27.908;2024-01-15T05:18:27;37.58;;;18.10;;
71038;SDS011;58692;43.212;27.908;2024-01-15T05:20:53;40.70;;;19.37;;
71038;SDS011;58692;43.212;27.908;2024-01-15T05:23:21;43.15;;;20.35;;
71038;SDS011;58692;43.212;27.908;2024-01-15T05:25:47;40.80;;;19.08;;
71038;SDS011;58692;43.212;27.908;2024-01-15T05:28:13;37.17;;;17.97;;
71038;SDS011;58692;43.212;27.908;2024-01-15T05:30:39;41.95;;;20.77;;
71038;SDS011;58692;43.212;27.908;2024-01-15T05:33:05;40.13;;;20.42;;
71038;SDS011;58692;43.212;27.908;2024-01-15T05:35:32;41.17;;;19.63;;
71038;SDS011;58692;43.212;27.908;2024-01-15T05:38:24;43.72;;;20.83;;
71038;SDS011;58692;43.212;27.908;2024-01-15T05:41:30;35.70;;;18.05;;
71038;SDS011;58692;43.212;27.908;2024-01-15T05:43:56;40.93;;;17.93;;
71038;SDS011;58692;43.212;27.908;2024-01-15T05:46:27;45.83;;;19.38;;
71038;SDS011;58692;43.212;27.908;2024-01-15T05:48:56;42.53;;;18.95;;
71038;SDS011;58692;43.212;27.908;2024-01-15T05:51:27;36.28;;;17.65;;
71038;SDS011;58692;43.212;27.908;2024-01-15T05:53:58;30.52;;;15.77;;
71038;SDS011;58692;43.212;27.908;2024-01-15T05:56:24;32.17;;;15.33;;
71038;SDS011;58692;43.212;27.908;2024-01-15T06:01:42;31.92;;;14.93;;
71038;SDS011;58692;43.212;27.908;2024-01-15T06:04:15;33.97;;;14.90;;
71038;SDS011;58692;43.212;27.908;2024-01-15T06:06:41;28.50;;;15.65;;
71038;SDS011;58692;43.212;27.908;2024-01-15T06:09:09;36.90;;;17.13;;
71038;SDS011;58692;43.212;27.908;2024-01-15T06:14:31;33.00;;;17.63;;
71038;SDS011;58692;43.212;27.908;2024-01-15T06:16:57;40.80;;;17.95;;
71038;SDS011;58692;43.212;27.908;2024-01-15T06:19:22;43.27;;;18.83;;
71038;SDS011;58692;43.212;27.908;2024-01-15T06:21:55;42.20;;;18.52;;
71038;SDS011;58692;43.212;27.908;2024-01-15T06:24:21;40.83;;;19.17;;
71038;SDS011;58692;43.212;27.908;2024-01-15T06:26:50;40.53;;;18.37;;
71038;SDS011;58692;43.212;27.908;2024-01-15T06:29:16;37.67;;;17.50;;
71038;SDS011;58692;43.212;27.908;2024-01-15T06:31:41;48.95;;;19.20;;
71038;SDS011;58692;43.212;27.908;2024-01-15T06:34:07;38.37;;;18.77;;
71038;SDS011;58692;43.212;27.908;2024-01-15T06:36:36;42.28;;;19.13;;
71038;SDS011;58692;43.212;27.908;2024-01-15T06:39:01;38.97;;;17.83;;
71038;SDS011;58692;43.212;27.908;2024-01-15T06:41:30;41.97;;;20.42;;
71038;SDS011;58692;43.212;27.908;2024-01-15T06:43:59;50.90;;;21.55;;
71038;SDS011;58692;43.212;27.908;2024-01-15T06:46:28;47.65;;;22.90;;
71038;SDS011;58692;43.212;27.908;2024-01-15T06:48:54;44.03;;;21.00;;
71038;SDS011;58692;43.212;27.908;2024-01-15T06:51:23;44.05;;;21.45;;
71038;SDS011;58692;43.212;27.908;2024-01-15T06:54:08;41.03;;;21.48;;
71038;SDS011;58692;43.212;27.908;2024-01-15T06:56:34;44.70;;;22.10;;
71038;SDS011;58692;43.212;27.908;2024-01-15T06:58:59;44.85;;;21.95;;
71038;SDS011;58692;43.212;27.908;2024-01-15T07:01:25;42.67;;;22.23;;
71038;SDS011;58692;43.212;27.908;2024-01-15T07:03:51;45.20;;;24.17;;
71038;SDS011;58692;43.212;27.908;2024-01-15T07:06:17;49.40;;;25.93;;
71038;SDS011;58692;43.212;27.908;2024-01-15T07:08:44;53.13;;;28.90;;
71038;SDS011;58692;43.212;27.908;2024-01-15T07:11:09;53.00;;;28.90;;
71038;SDS011;58692;43.212;27.908;2024-01-15T07:13:36;58.38;;;32.83;;
71038;SDS011;58692;43.212;27.908;2024-01-15T07:16:11;57.88;;;33.83;;
71038;SDS011;58692;43.212;27.908;2024-01-15T07:18:37;66.23;;;36.33;;
71038;SDS011;58692;43.212;27.908;2024-01-15T07:21:02;66.82;;;38.28;;
71038;SDS011;58692;43.212;27.908;2024-01-15T07:23:30;58.85;;;32.97;;
71038;SDS011;58692;43.212;27.908;2024-01-15T07:25:57;57.03;;;30.03;;
71038;SDS011;58692;43.212;27.908;2024-01-15T07:28:25;44.92;;;25.67;;
71038;SDS011;58692;43.212;27.908;2024-01-15T07:30:54;48.88;;;25.58;;
71038;SDS011;58692;43.212;27.908;2024-01-15T07:33:19;42.47;;;24.90;;
71038;SDS011;58692;43.212;27.908;2024-01-15T07:35:45;50.20;;;25.77;;
71038;SDS011;58692;43.212;27.908;2024-01-15T07:38:11;45.17;;;25.90;;
71038;SDS011;58692;43.212;27.908;2024-01-15T07:40:37;49.47;;;23.92;;
71038;SDS011;58692;43.212;27.908;2024-01-15T07:43:02;39.87;;;21.93;;
71038;SDS011;58692;43.212;27.908;2024-01-15T07:45:28;43.27;;;22.20;;
71038;SDS011;58692;43.212;27.908;2024-01-15T07:47:58;35.92;;;19.83;;
71038;SDS011;58692;43.212;27.908;2024-01-15T07:50:29;33.78;;;18.23;;
71038;SDS011;58692;43.212;27.908;2024-01-15T07:52:54;34.87;;;18.47;;
71038;SDS011;58692;43.212;27.908;2024-01-15T07:55:21;37.90;;;17.50;;
71038;SDS011;58692;43.212;27.908;2024-01-15T07:57:47;34.22;;;17.70;;
71038;SDS011;58692;43.212;27.908;2024-01-15T08:00:16;33.00;;;16.80;;
71038;SDS011;58692;43.212;27.908;2024-01-15T08:02:42;29.50;;;16.60;;
71038;SDS011;58692;43.212;27.908;2024-01-15T08:05:08;41.85;;;19.73;;
71038;SDS011;58692;43.212;27.908;2024-01-15T08:07:36;40.20;;;20.08;;
71038;SDS011;58692;43.212;27.908;2024-01-15T08:10:26;43.17;;;20.20;;
71038;SDS011;58692;43.212;27.908;2024-01-15T08:13:01;47.20;;;22.25;;
71038;SDS011;58692;43.212;27.908;2024-01-15T08:15:26;41.97;;;23.63;;
71038;SDS011;58692;43.212;27.908;2024-01-15T08:17:53;36.57;;;19.70;;
71038;SDS011;58692;43.212;27.908;2024-01-15T08:20:18;50.45;;;22.70;;
71038;SDS011;58692;43.212;27.908;2024-01-15T08:22:45;40.20;;;20.33;;
71038;SDS011;58692;43.212;27.908;2024-01-15T08:25:12;43.92;;;20.85;;
71038;SDS011;58692;43.212;27.908;2024-01-15T08:27:40;40.97;;;21.17;;
71038;SDS011;58692;43.212;27.908;2024-01-15T08:30:09;40.30;;;20.97;;
71038;SDS011;58692;43.212;27.908;2024-01-15T08:32:46;40.05;;;20.70;;
71038;SDS011;58692;43.212;27.908;2024-01-15T08:35:14;40.17;;;21.90;;
71038;SDS011;58692;43.212;27.908;2024-01-15T08:37:47;46.08;;;21.50;;
71038;SDS011;58692;43.212;27.908;2024-01-15T08:40:15;47.80;;;21.80;;
71038;SDS011;58692;43.212;27.908;2024-01-15T08:42:41;44.60;;;22.93;;
71038;SDS011;58692;43.212;27.908;2024-01-15T08:45:11;52.85;;;25.27;;
71038;SDS011;58692;43.212;27.908;2024-01-15T08:47:47;47.33;;;24.65;;
71038;SDS011;58692;43.212;27.908;2024-01-15T08:50:13;55.45;;;26.90;;
71038;SDS011;58692;43.212;27.908;2024-01-15T08:55:45;45.90;;;23.88;;
71038;SDS011;58692;43.212;27.908;2024-01-15T08:58:36;39.65;;;23.02;;
71038;SDS011;58692;43.212;27.908;2024-01-15T09:01:22;45.90;;;24.17;;
71038;SDS011;58692;43.212;27.908;2024-01-15T09:03:50;46.45;;;24.42;;
71038;SDS011;58692;43.212;27.908;2024-01-15T09:06:16;48.23;;;24.00;;
71038;SDS011;58692;43.212;27.908;2024-01-15T09:08:45;46.88;;;24.00;;
71038;SDS011;58692;43.212;27.908;2024-01-15T09:11:19;46.00;;;23.40;;
71038;SDS011;58692;43.212;27.908;2024-01-15T09:13:54;45.22;;;23.13;;
71038;SDS011;58692;43.212;27.908;2024-01-15T09:16:19;42.27;;;22.77;;
71038;SDS011;58692;43.212;27.908;2024-01-15T09:18:46;43.50;;;21.37;;
71038;SDS011;58692;43.212;27.908;2024-01-15T09:21:12;39.53;;;21.37;;
71038;SDS011;58692;43.212;27.908;2024-01-15T09:23:40;43.42;;;21.27;;
71038;SDS011;58692;43.212;27.908;2024-01-15T09:26:07;29.88;;;16.98;;
71038;SDS011;58692;43.212;27.908;2024-01-15T09:28:33;29.17;;;14.67;;
71038;SDS011;58692;43.212;27.908;2024-01-15T09:30:59;23.20;;;13.70;;
71038;SDS011;58692;43.212;27.908;2024-01-15T09:33:24;27.07;;;14.20;;
71038;SDS011;58692;43.212;27.908;2024-01-15T09:35:52;25.17;;;13.65;;
71038;SDS011;58692;43.212;27.908;2024-01-15T09:38:20;29.92;;;14.05;;
71038;SDS011;58692;43.212;27.908;2024-01-15T09:40:46;28.80;;;14.23;;
71038;SDS011;58692;43.212;27.908;2024-01-15T09:43:12;22.97;;;13.50;;
71038;SDS011;58692;43.212;27.908;2024-01-15T09:45:39;21.95;;;13.02;;
71038;SDS011;58692;43.212;27.908;2024-01-15T09:48:13;26.13;;;13.82;;
71038;SDS011;58692;43.212;27.908;2024-01-15T09:50:42;22.17;;;12.48;;
71038;SDS011;58692;43.212;27.908;2024-01-15T09:53:08;26.10;;;14.88;;
71038;SDS011;58692;43.212;27.908;2024-01-15T09:55:49;28.77;;;15.07;;
71038;SDS011;58692;43.212;27.908;2024-01-15T09:58:24;29.50;;;15.10;;
71038;SDS011;58692;43.212;27.908;2024-01-15T10:00:56;26.45;;;14.40;;
71038;SDS011;58692;43.212;27.908;2024-01-15T10:03:58;25.13;;;13.95;;
71038;SDS011;58692;43.212;27.908;2024-01-15T10:06:27;24.75;;;12.60;;
71038;SDS011;58692;43.212;27.908;2024-01-15T10:08:53;24.90;;;11.90;;
71038;SDS011;58692;43.212;27.908;2024-01-15T10:11:39;20.08;;;10.93;;
71038;SDS011;58692;43.212;27.908;2024-01-15T10:14:08;20.65;;;11.95;;
71038;SDS011;58692;43.212;27.908;2024-01-15T10:16:38;24.92;;;11.77;;
71038;SDS011;58692;43.212;27.908;2024-01-15T10:19:13;20.90;;;11.35;;
71038;SDS011;58692;43.212;27.908;2024-01-15T10:21:41;17.60;;;9.00;;
71038;SDS011;58692;43.212;27.908;2024-01-15T10:24:07;16.92;;;9.93;;
71038;SDS011;58692;43.212;27.908;2024-01-15T10:26:36;19.48;;;10.00;;
71038;SDS011;58692;43.212;27.908;2024-01-15T10:29:01;19.17;;;10.40;;
71038;SDS011;58692;43.212;27.908;2024-01-15T10:31:27;17.13;;;9.27;;
71038;SDS011;58692;43.212;27.908;2024-01-15T10:33:53;20.90;;;10.80;;
71038;SDS011;58692;43.212;27.908;2024-01-15T10:36:19;23.40;;;10.63;;
71038;SDS011;58692;43.212;27.908;2024-01-15T10:38:47;20.02;;;9.93;;
71038;SDS011;58692;43.212;27.908;2024-01-15T10:41:13;17.00;;;9.00;;
71038;SDS011;58692;43.212;27.908;2024-01-15T10:43:38;15.03;;;7.83;;
71038;SDS011;58692;43.212;27.908;2024-01-15T10:46:07;12.98;;;6.80;;
71038;SDS011;58692;43.212;27.908;2024-01-15T10:48:33;15.40;;;7.18;;
71038;SDS011;58692;43.212;27.908;2024-01-15T10:51:01;14.93;;;7.87;;
71038;SDS011;58692;43.212;27.908;2024-01-15T10:53:36;13.68;;;7.03;;
71038;SDS011;58692;43.212;27.908;2024-01-15T10:56:11;16.67;;;7.60;;
71038;SDS011;58692;43.212;27.908;2024-01-15T10:58:39;15.98;;;7.18;;
71038;SDS011;58692;43.212;27.908;2024-01-15T11:01:05;13.18;;;6.60;;
71038;SDS011;58692;43.212;27.908;2024-01-15T11:03:31;11.47;;;5.97;;
71038;SDS011;58692;43.212;27.908;2024-01-15T11:06:00;14.30;;;6.30;;
71038;SDS011;58692;43.212;27.908;2024-01-15T11:08:31;12.85;;;6.70;;
71038;SDS011;58692;43.212;27.908;2024-01-15T11:11:00;14.68;;;7.30;;
71038;SDS011;58692;43.212;27.908;2024-01-15T11:13:41;15.30;;;6.90;;
71038;SDS011;58692;43.212;27.908;2024-01-15T11:16:10;15.27;;;7.05;;
71038;SDS011;58692;43.212;27.908;2024-01-15T11:23:55;15.50;;;6.95;;
71038;SDS011;58692;43.212;27.908;2024-01-15T11:26:28;14.30;;;6.70;;
71038;SDS011;58692;43.212;27.908;2024-01-15T11:28:55;20.52;;;8.00;;
71038;SDS011;58692;43.212;27.908;2024-01-15T11:31:28;19.38;;;9.10;;
71038;SDS011;58692;43.212;27.908;2024-01-15T11:33:54;13.30;;;5.78;;
71038;SDS011;58692;43.212;27.908;2024-01-15T11:36:21;14.00;;;7.00;;
71038;SDS011;58692;43.212;27.908;2024-01-15T11:41:50;15.25;;;7.03;;
71038;SDS011;58692;43.212;27.908;2024-01-15T11:44:16;15.80;;;7.20;;
71038;SDS011;58692;43.212;27.908;2024-01-15T11:46:44;17.20;;;7.43;;
71038;SDS011;58692;43.212;27.908;2024-01-15T11:52:21;14.93;;;7.27;;
71038;SDS011;58692;43.212;27.908;2024-01-15T11:54:53;12.85;;;6.28;;
71038;SDS011;58692;43.212;27.908;2024-01-15T11:57:33;12.73;;;6.05;;
71038;SDS011;58692;43.212;27.908;2024-01-15T12:00:08;13.48;;;5.85;;
71038;SDS011;58692;43.212;27.908;2024-01-15T12:02:34;13.88;;;5.95;;
71038;SDS011;58692;43.212;27.908;2024-01-15T12:05:00;10.93;;;5.67;;
71038;SDS011;58692;43.212;27.908;2024-01-15T12:07:26;13.18;;;6.10;;
71038;SDS011;58692;43.212;27.908;2024-01-15T12:09:54;17.00;;;6.57;;
71038;SDS011;58692;43.212;27.908;2024-01-15T12:12:24;13.18;;;6.10;;
71038;SDS011;58692;43.212;27.908;2024-01-15T12:14:57;14.38;;;6.70;;
71038;SDS011;58692;43.212;27.908;2024-01-15T12:17:23;13.93;;;7.30;;
71038;SDS011;58692;43.212;27.908;2024-01-15T12:19:49;14.25;;;6.85;;
71038;SDS011;58692;43.212;27.908;2024-01-15T12:22:15;11.30;;;5.47;;
71038;SDS011;58692;43.212;27.908;2024-01-15T12:24:40;12.65;;;5.70;;
71038;SDS011;58692;43.212;27.908;2024-01-15T12:27:06;15.37;;;6.63;;
71038;SDS011;58692;43.212;27.908;2024-01-15T12:29:33;16.20;;;7.77;;
71038;SDS011;58692;43.212;27.908;2024-01-15T12:32:03;16.33;;;7.88;;
71038;SDS011;58692;43.212;27.908;2024-01-15T12:34:30;17.75;;;7.70;;
71038;SDS011;58692;43.212;27.908;2024-01-15T12:36:57;16.90;;;7.23;;
71038;SDS011;58692;43.212;27.908;2024-01-15T12:39:24;14.70;;;7.63;;
71038;SDS011;58692;43.212;27.908;2024-01-15T12:41:51;14.60;;;5.93;;
71038;SDS011;58692;43.212;27.908;2024-01-15T12:44:16;15.00;;;6.72;;
71038;SDS011;58692;43.212;27.908;2024-01-15T12:46:45;16.33;;;7.07;;
71038;SDS011;58692;43.212;27.908;2024-01-15T12:49:10;16.30;;;7.60;;
71038;SDS011;58692;43.212;27.908;2024-01-15T12:51:38;14.65;;;7.28;;
71038;SDS011;58692;43.212;27.908;2024-01-15T12:54:04;15.17;;;5.93;;
71038;SDS011;58692;43.212;27.908;2024-01-15T12:56:30;12.80;;;5.95;;
71038;SDS011;58692;43.212;27.908;2024-01-15T12:58:55;12.48;;;6.20;;
71038;SDS011;58692;43.212;27.908;2024-01-15T13:01:21;18.73;;;5.63;;
71038;SDS011;58692;43.212;27.908;2024-01-15T13:03:47;11.93;;;5.32;;
71038;SDS011;58692;43.212;27.908;2024-01-15T13:06:13;15.10;;;5.97;;
71038;SDS011;58692;43.212;27.908;2024-01-15T13:08:38;15.23;;;6.60;;
71038;SDS011;58692;43.212;27.908;2024-01-15T13:11:07;15.18;;;6.53;;
71038;SDS011;58692;43.212;27.908;2024-01-15T13:13:32;13.37;;;6.60;;
71038;SDS011;58692;43.212;27.908;2024-01-15T13:15:59;19.52;;;7.30;;
71038;SDS011;58692;43.212;27.908;2024-01-15T13:18:25;15.18;;;8.13;;
71038;SDS011;58692;43.212;27.908;2024-01-15T13:20:51;19.17;;;8.37;;
71038;SDS011;58692;43.212;27.908;2024-01-15T13:23:17;19.88;;;9.05;;
71038;SDS011;58692;43.212;27.908;2024-01-15T13:25:42;17.83;;;8.20;;
71038;SDS011;58692;43.212;27.908;2024-01-15T13:28:08;28.38;;;12.30;;
71038;SDS011;58692;43.212;27.908;2024-01-15T13:30:34;18.23;;;8.90;;
71038;SDS011;58692;43.212;27.908;2024-01-15T13:32:59;18.17;;;8.70;;
71038;SDS011;58692;43.212;27.908;2024-01-15T13:35:29;15.77;;;8.60;;
71038;SDS011;58692;43.212;27.908;2024-01-15T13:37:55;15.20;;;7.93;;
71038;SDS011;58692;43.212;27.908;2024-01-15T13:40:21;16.30;;;7.82;;
71038;SDS011;58692;43.212;27.908;2024-01-15T13:42:47;19.63;;;7.27;;
71038;SDS011;58692;43.212;27.908;2024-01-15T13:45:13;17.70;;;8.35;;
71038;SDS011;58692;43.212;27.908;2024-01-15T13:47:41;22.83;;;8.30;;
71038;SDS011;58692;43.212;27.908;2024-01-15T13:50:08;17.13;;;8.02;;
71038;SDS011;58692;43.212;27.908;2024-01-15T13:52:35;19.33;;;8.93;;
71038;SDS011;58692;43.212;27.908;2024-01-15T13:55:03;20.60;;;9.97;;
71038;SDS011;58692;43.212;27.908;2024-01-15T13:57:28;22.50;;;11.50;;
71038;SDS011;58692;43.212;27.908;2024-01-15T13:59:54;22.30;;;9.97;;
71038;SDS011;58692;43.212;27.908;2024-01-15T14:02:20;22.20;;;10.40;;
71038;SDS011;58692;43.212;27.908;2024-01-15T14:04:51;25.50;;;10.25;;
71038;SDS011;58692;43.212;27.908;2024-01-15T14:07:17;25.07;;;10.90;;
71038;SDS011;58692;43.212;27.908;2024-01-15T14:09:42;22.92;;;10.18;;
71038;SDS011;58692;43.212;27.908;2024-01-15T14:12:08;19.10;;;9.70;;
71038;SDS011;58692;43.212;27.908;2024-01-15T14:14:34;23.67;;;10.18;;
71038;SDS011;58692;43.212;27.908;2024-01-15T14:17:00;22.52;;;11.38;;
71038;SDS011;58692;43.212;27.908;2024-01-15T14:19:26;26.23;;;11.37;;
71038;SDS011;58692;43.212;27.908;2024-01-15T14:21:52;24.10;;;11.23;;
71038;SDS011;58692;43.212;27.908;2024-01-15T14:24:17;26.73;;;11.90;;
71038;SDS011;58692;43.212;27.908;2024-01-15T14:26:43;27.17;;;11.85;;
71038;SDS011;58692;43.212;27.908;2024-01-15T14:29:09;22.70;;;12.00;;
71038;SDS011;58692;43.212;27.908;2024-01-15T14:31:35;26.70;;;13.87;;
71038;SDS011;58692;43.212;27.908;2024-01-15T14:34:00;29.80;;;16.93;;
71038;SDS011;58692;43.212;27.908;2024-01-15T14:36:28;35.75;;;18.38;;
71038;SDS011;58692;43.212;27.908;2024-01-15T14:38:53;35.55;;;19.17;;